KLM2505 SMJP-TTPP
Flight info
| Callsign | KLM2505 |
|---|---|
| Flight time | 1h 17m |
| Altitude | 33000 |
| Route | GEKOS UG449 KORTO DCT IMIRA DCT LEXOR DCT TALUS |
| Aircraft | B763/H-SDE3FGHIM3RWXY/LB1 |
Departure
| Time | 2026-04-21 00:59 |
|---|---|
| Airport | Johan Adolf Pengel International Airport (SMJP) |
Arrival
| Time | 2026-04-21 02:16 |
|---|---|
| Airport | Piarco International Airport (TTPP) |
| Time | Latitude | Longitude | Altitude | Speed | Heading |
|---|---|---|---|---|---|
| 2026-04-21 00:53 | 5.45469 | -55.19766 | 73 ft | 0 kts | 359° |
| 2026-04-21 00:55 | 5.45463 | -55.19766 | 73 ft | 2 kts | 359° |
| 2026-04-21 00:55 | 5.45445 | -55.19766 | 73 ft | 3 kts | 359° |
| 2026-04-21 00:55 | 5.45427 | -55.19766 | 73 ft | 0 kts | 359° |
| 2026-04-21 00:56 | 5.45441 | -55.19791 | 73 ft | 8 kts | 252° |
| 2026-04-21 00:56 | 5.45421 | -55.19868 | 73 ft | 12 kts | 269° |
| 2026-04-21 00:56 | 5.45420 | -55.19947 | 73 ft | 11 kts | 269° |
| 2026-04-21 00:56 | 5.45420 | -55.20050 | 73 ft | 16 kts | 270° |
| 2026-04-21 00:57 | 5.45419 | -55.20157 | 73 ft | 15 kts | 269° |
| 2026-04-21 00:57 | 5.45419 | -55.20256 | 73 ft | 14 kts | 271° |
| 2026-04-21 00:57 | 5.45391 | -55.20331 | 73 ft | 10 kts | 197° |
| 2026-04-21 00:57 | 5.45324 | -55.20336 | 73 ft | 9 kts | 180° |
| 2026-04-21 00:58 | 5.45266 | -55.20328 | 73 ft | 8 kts | 144° |
| 2026-04-21 00:58 | 5.45255 | -55.20288 | 73 ft | 0 kts | 89° |
| 2026-04-21 00:58 | 5.45255 | -55.20287 | 73 ft | 1 kts | 89° |
| 2026-04-21 00:59 | 5.45255 | -55.20119 | 73 ft | 68 kts | 89° |
| 2026-04-21 00:59 | 5.45261 | -55.19322 | 96 ft | 155 kts | 89° |
| 2026-04-21 00:59 | 5.45271 | -55.18143 | 887 ft | 177 kts | 89° |
| 2026-04-21 00:59 | 5.45437 | -55.16860 | 1860 ft | 199 kts | 73° |
| 2026-04-21 01:00 | 5.46289 | -55.15704 | 2635 ft | 218 kts | 40° |
| 2026-04-21 01:00 | 5.47760 | -55.15086 | 3282 ft | 244 kts | 11° |
| 2026-04-21 01:00 | 5.49500 | -55.15039 | 4212 ft | 256 kts | 357° |
| 2026-04-21 01:00 | 5.51264 | -55.15181 | 5379 ft | 259 kts | 353° |
| 2026-04-21 01:01 | 5.53078 | -55.15347 | 6489 ft | 267 kts | 351° |
| 2026-04-21 01:01 | 5.54965 | -55.15541 | 7472 ft | 276 kts | 348° |
| 2026-04-21 01:01 | 5.56830 | -55.15982 | 8620 ft | 276 kts | 339° |
| 2026-04-21 01:01 | 5.58600 | -55.16718 | 9762 ft | 275 kts | 327° |
| 2026-04-21 01:02 | 5.60163 | -55.17844 | 10709 ft | 284 kts | 317° |
| 2026-04-21 01:02 | 5.61650 | -55.19264 | 11239 ft | 307 kts | 311° |
| 2026-04-21 01:02 | 5.63150 | -55.20898 | 11858 ft | 326 kts | 309° |
| 2026-04-21 01:02 | 5.64625 | -55.22677 | 12725 ft | 335 kts | 307° |
| 2026-04-21 01:03 | 5.66078 | -55.24532 | 13724 ft | 340 kts | 305° |
| 2026-04-21 01:03 | 5.67517 | -55.26438 | 14737 ft | 344 kts | 304° |
| 2026-04-21 01:03 | 5.68961 | -55.28376 | 15706 ft | 349 kts | 304° |
| 2026-04-21 01:03 | 5.70420 | -55.30344 | 16629 ft | 353 kts | 304° |
| 2026-04-21 01:04 | 5.71897 | -55.32341 | 17519 ft | 358 kts | 304° |
| 2026-04-21 01:04 | 5.73387 | -55.34366 | 18388 ft | 363 kts | 304° |
| 2026-04-21 01:04 | 5.74905 | -55.36423 | 19236 ft | 368 kts | 304° |
| 2026-04-21 01:04 | 5.76423 | -55.38471 | 20048 ft | 373 kts | 304° |
| 2026-04-21 01:05 | 5.77973 | -55.40588 | 20847 ft | 378 kts | 304° |
| 2026-04-21 01:05 | 5.79522 | -55.42742 | 21619 ft | 382 kts | 303° |
| 2026-04-21 01:05 | 5.81086 | -55.44930 | 22369 ft | 387 kts | 303° |
| 2026-04-21 01:05 | 5.82669 | -55.47144 | 23096 ft | 392 kts | 303° |
| 2026-04-21 01:06 | 5.84259 | -55.49352 | 23794 ft | 396 kts | 304° |
| 2026-04-21 01:06 | 5.85884 | -55.51612 | 24482 ft | 401 kts | 303° |
| 2026-04-21 01:06 | 5.87521 | -55.53904 | 25152 ft | 405 kts | 304° |
| 2026-04-21 01:06 | 5.89184 | -55.56216 | 25799 ft | 409 kts | 304° |
| 2026-04-21 01:07 | 5.90846 | -55.58527 | 26417 ft | 414 kts | 304° |
| 2026-04-21 01:07 | 5.92573 | -55.60868 | 27023 ft | 418 kts | 304° |
| 2026-04-21 01:07 | 5.94327 | -55.63212 | 27603 ft | 422 kts | 305° |
| 2026-04-21 01:07 | 5.95505 | -55.64783 | 27978 ft | 424 kts | 305° |
| 2026-04-21 01:08 | 5.97289 | -55.67167 | 28527 ft | 428 kts | 305° |
| 2026-04-21 01:08 | 5.99090 | -55.69570 | 29060 ft | 432 kts | 305° |
| 2026-04-21 01:08 | 6.01481 | -55.72765 | 29931 ft | 431 kts | 305° |
| 2026-04-21 01:08 | 6.03254 | -55.75187 | 30622 ft | 429 kts | 304° |
| 2026-04-21 01:09 | 6.04433 | -55.76824 | 31070 ft | 427 kts | 304° |
| 2026-04-21 01:09 | 6.06155 | -55.79217 | 31698 ft | 426 kts | 304° |
| 2026-04-21 01:09 | 6.07885 | -55.81628 | 32297 ft | 424 kts | 304° |
| 2026-04-21 01:09 | 6.09616 | -55.84051 | 32714 ft | 428 kts | 303° |
| 2026-04-21 01:10 | 6.11370 | -55.86506 | 32891 ft | 436 kts | 304° |
| 2026-04-21 01:10 | 6.13169 | -55.89000 | 32975 ft | 446 kts | 304° |
| 2026-04-21 01:10 | 6.15653 | -55.92423 | 32999 ft | 460 kts | 304° |
| 2026-04-21 01:10 | 6.16921 | -55.94159 | 33001 ft | 466 kts | 304° |
| 2026-04-21 01:11 | 6.20785 | -55.99421 | 33000 ft | 469 kts | 305° |
| 2026-04-21 01:11 | 6.24703 | -56.04673 | 32999 ft | 469 kts | 305° |
| 2026-04-21 01:12 | 6.28613 | -56.09946 | 32998 ft | 469 kts | 304° |
| 2026-04-21 01:12 | 6.32430 | -56.15270 | 32997 ft | 469 kts | 304° |
| 2026-04-21 01:13 | 6.36216 | -56.20579 | 32996 ft | 469 kts | 304° |
| 2026-04-21 01:13 | 6.40026 | -56.25919 | 32996 ft | 469 kts | 304° |
| 2026-04-21 01:14 | 6.43865 | -56.31228 | 32996 ft | 470 kts | 305° |
| 2026-04-21 01:14 | 6.47799 | -56.36492 | 32996 ft | 470 kts | 305° |
| 2026-04-21 01:15 | 6.51715 | -56.41746 | 32996 ft | 470 kts | 305° |
| 2026-04-21 01:15 | 6.55583 | -56.47051 | 32996 ft | 470 kts | 304° |
| 2026-04-21 01:16 | 6.59395 | -56.52403 | 32997 ft | 470 kts | 304° |
| 2026-04-21 01:16 | 6.63173 | -56.57711 | 32996 ft | 470 kts | 304° |
| 2026-04-21 01:17 | 6.66996 | -56.63062 | 32997 ft | 470 kts | 304° |
| 2026-04-21 01:17 | 6.70892 | -56.68360 | 32996 ft | 470 kts | 305° |
| 2026-04-21 01:18 | 6.74759 | -56.73615 | 32997 ft | 470 kts | 305° |
| 2026-04-21 01:18 | 6.78650 | -56.78902 | 32996 ft | 470 kts | 304° |
| 2026-04-21 01:19 | 6.82491 | -56.84230 | 32996 ft | 470 kts | 304° |
| 2026-04-21 01:19 | 6.86300 | -56.89578 | 32997 ft | 470 kts | 304° |
| 2026-04-21 01:20 | 6.90112 | -56.94882 | 32996 ft | 470 kts | 304° |
| 2026-04-21 01:20 | 6.93992 | -57.00179 | 32996 ft | 470 kts | 305° |
| 2026-04-21 01:21 | 6.98092 | -57.05324 | 32996 ft | 471 kts | 308° |
| 2026-04-21 01:21 | 7.02305 | -57.10378 | 32997 ft | 471 kts | 308° |
| 2026-04-21 01:22 | 7.06523 | -57.15434 | 32997 ft | 471 kts | 308° |
| 2026-04-21 01:22 | 7.10710 | -57.20509 | 32997 ft | 471 kts | 307° |
| 2026-04-21 01:23 | 7.14813 | -57.25604 | 32996 ft | 471 kts | 307° |
| 2026-04-21 01:23 | 7.18928 | -57.30735 | 32996 ft | 471 kts | 307° |
| 2026-04-21 01:24 | 7.23056 | -57.35883 | 32997 ft | 471 kts | 307° |
| 2026-04-21 01:24 | 7.27172 | -57.40968 | 32997 ft | 471 kts | 308° |
| 2026-04-21 01:25 | 7.31377 | -57.46050 | 32997 ft | 471 kts | 308° |
| 2026-04-21 01:25 | 7.35554 | -57.51127 | 32996 ft | 471 kts | 308° |
| 2026-04-21 01:26 | 7.39680 | -57.56190 | 32997 ft | 470 kts | 307° |
| 2026-04-21 01:26 | 7.43811 | -57.61316 | 32996 ft | 470 kts | 307° |
| 2026-04-21 01:27 | 7.47912 | -57.66466 | 32996 ft | 470 kts | 307° |
| 2026-04-21 01:27 | 7.52008 | -57.71620 | 32996 ft | 470 kts | 307° |
| 2026-04-21 01:28 | 7.56138 | -57.76699 | 32996 ft | 470 kts | 308° |
| 2026-04-21 01:28 | 7.60312 | -57.81789 | 32996 ft | 470 kts | 307° |
| 2026-04-21 01:29 | 7.64432 | -57.86918 | 32996 ft | 470 kts | 307° |
| 2026-04-21 01:29 | 7.68577 | -57.92029 | 32996 ft | 470 kts | 308° |
| 2026-04-21 01:30 | 7.72708 | -57.97097 | 32997 ft | 470 kts | 307° |
| 2026-04-21 01:30 | 7.76876 | -58.02187 | 32996 ft | 470 kts | 308° |
| 2026-04-21 01:31 | 7.81099 | -58.07241 | 32997 ft | 471 kts | 308° |
| 2026-04-21 01:31 | 7.85266 | -58.12291 | 32997 ft | 470 kts | 308° |
| 2026-04-21 01:32 | 7.89410 | -58.17407 | 32996 ft | 470 kts | 307° |
| 2026-04-21 01:32 | 7.93516 | -58.22560 | 32996 ft | 470 kts | 307° |
| 2026-04-21 01:33 | 7.97662 | -58.27684 | 32996 ft | 471 kts | 308° |
| 2026-04-21 01:33 | 8.01819 | -58.32723 | 32996 ft | 471 kts | 308° |
| 2026-04-21 01:34 | 8.05932 | -58.37885 | 32997 ft | 470 kts | 307° |
| 2026-04-21 01:34 | 8.10021 | -58.43049 | 32996 ft | 470 kts | 307° |
| 2026-04-21 01:35 | 8.14126 | -58.48206 | 32997 ft | 470 kts | 307° |
| 2026-04-21 01:35 | 8.18256 | -58.53334 | 32996 ft | 471 kts | 307° |
| 2026-04-21 01:36 | 8.22419 | -58.58382 | 32996 ft | 471 kts | 308° |
| 2026-04-21 01:36 | 8.26598 | -58.63475 | 32996 ft | 471 kts | 307° |
| 2026-04-21 01:37 | 8.30722 | -58.68617 | 32996 ft | 471 kts | 307° |
| 2026-04-21 01:37 | 8.34815 | -58.73784 | 32997 ft | 471 kts | 307° |
| 2026-04-21 01:38 | 8.38921 | -58.78935 | 32996 ft | 471 kts | 307° |
| 2026-04-21 01:38 | 8.43048 | -58.84093 | 32997 ft | 471 kts | 307° |
| 2026-04-21 01:39 | 8.47209 | -58.89154 | 32996 ft | 471 kts | 308° |
| 2026-04-21 01:39 | 8.51404 | -58.94252 | 32996 ft | 471 kts | 307° |
| 2026-04-21 01:40 | 8.55564 | -58.99375 | 32996 ft | 471 kts | 307° |
| 2026-04-21 01:40 | 8.59708 | -59.04507 | 32996 ft | 471 kts | 307° |
| 2026-04-21 01:41 | 8.63786 | -59.09679 | 32996 ft | 471 kts | 307° |
| 2026-04-21 01:41 | 8.67865 | -59.14814 | 32996 ft | 471 kts | 307° |
| 2026-04-21 01:42 | 8.72024 | -59.19937 | 32997 ft | 471 kts | 308° |
| 2026-04-21 01:42 | 8.76214 | -59.25035 | 32996 ft | 471 kts | 308° |
| 2026-04-21 01:43 | 8.80322 | -59.30195 | 32997 ft | 471 kts | 306° |
| 2026-04-21 01:43 | 8.84394 | -59.35381 | 32996 ft | 471 kts | 307° |
| 2026-04-21 01:44 | 8.88523 | -59.40524 | 32996 ft | 471 kts | 307° |
| 2026-04-21 01:44 | 8.92683 | -59.45644 | 32996 ft | 471 kts | 307° |
| 2026-04-21 01:45 | 8.96726 | -59.50855 | 32996 ft | 470 kts | 306° |
| 2026-04-21 01:45 | 9.00675 | -59.56083 | 32997 ft | 470 kts | 306° |
| 2026-04-21 01:46 | 9.04690 | -59.61328 | 32996 ft | 470 kts | 306° |
| 2026-04-21 01:46 | 9.08724 | -59.66551 | 32997 ft | 470 kts | 306° |
| 2026-04-21 01:47 | 9.12658 | -59.71790 | 32997 ft | 470 kts | 305° |
| 2026-04-21 01:47 | 9.16605 | -59.77062 | 32996 ft | 470 kts | 305° |
| 2026-04-21 01:48 | 9.20579 | -59.82330 | 32997 ft | 470 kts | 305° |
| 2026-04-21 01:48 | 9.24547 | -59.87597 | 32997 ft | 470 kts | 306° |
| 2026-04-21 01:49 | 9.28596 | -59.92810 | 32997 ft | 470 kts | 306° |
| 2026-04-21 01:49 | 9.32612 | -59.97989 | 32997 ft | 470 kts | 306° |
| 2026-04-21 01:50 | 9.36655 | -60.03207 | 32997 ft | 470 kts | 306° |
| 2026-04-21 01:50 | 9.40685 | -60.08446 | 32996 ft | 470 kts | 306° |
| 2026-04-21 01:51 | 9.44634 | -60.13695 | 32997 ft | 470 kts | 306° |
| 2026-04-21 01:51 | 9.48617 | -60.18947 | 32996 ft | 470 kts | 306° |
| 2026-04-21 01:52 | 9.54664 | -60.26800 | 32998 ft | 470 kts | 306° |
| 2026-04-21 01:53 | 9.58589 | -60.32064 | 32996 ft | 470 kts | 305° |
| 2026-04-21 01:53 | 9.62532 | -60.37363 | 32996 ft | 470 kts | 305° |
| 2026-04-21 01:54 | 9.65786 | -60.41729 | 32993 ft | 455 kts | 305° |
| 2026-04-21 01:54 | 9.67673 | -60.44235 | 32742 ft | 441 kts | 306° |
| 2026-04-21 01:54 | 9.70164 | -60.47454 | 31832 ft | 436 kts | 306° |
| 2026-04-21 01:54 | 9.72039 | -60.49856 | 31132 ft | 432 kts | 306° |
| 2026-04-21 01:55 | 9.73277 | -60.51444 | 30702 ft | 429 kts | 306° |
| 2026-04-21 01:55 | 9.75118 | -60.53806 | 30070 ft | 425 kts | 306° |
| 2026-04-21 01:55 | 9.76943 | -60.56154 | 29445 ft | 420 kts | 306° |
| 2026-04-21 01:55 | 9.78724 | -60.58484 | 28827 ft | 416 kts | 305° |
| 2026-04-21 01:56 | 9.80464 | -60.60807 | 28214 ft | 411 kts | 305° |
| 2026-04-21 01:56 | 9.82180 | -60.63107 | 27610 ft | 407 kts | 305° |
| 2026-04-21 01:56 | 9.83889 | -60.65371 | 27010 ft | 399 kts | 305° |
| 2026-04-21 01:56 | 9.85546 | -60.67574 | 26334 ft | 387 kts | 305° |
| 2026-04-21 01:57 | 9.87169 | -60.69726 | 25546 ft | 380 kts | 305° |
| 2026-04-21 01:57 | 9.88767 | -60.71831 | 24821 ft | 372 kts | 305° |
| 2026-04-21 01:57 | 9.90320 | -60.73884 | 24257 ft | 361 kts | 305° |
| 2026-04-21 01:57 | 9.91796 | -60.75850 | 23748 ft | 349 kts | 304° |
| 2026-04-21 01:58 | 9.93244 | -60.77789 | 23154 ft | 341 kts | 304° |
| 2026-04-21 01:58 | 9.94662 | -60.79692 | 22531 ft | 334 kts | 304° |
| 2026-04-21 01:58 | 9.96048 | -60.81563 | 21970 ft | 329 kts | 304° |
| 2026-04-21 01:58 | 9.97421 | -60.83423 | 21472 ft | 328 kts | 304° |
| 2026-04-21 01:59 | 9.98796 | -60.85281 | 20970 ft | 328 kts | 304° |
| 2026-04-21 01:59 | 10.00184 | -60.87123 | 20468 ft | 328 kts | 305° |
| 2026-04-21 01:59 | 10.01572 | -60.88928 | 19972 ft | 328 kts | 306° |
| 2026-04-21 01:59 | 10.02978 | -60.90744 | 19471 ft | 328 kts | 306° |
| 2026-04-21 02:00 | 10.04386 | -60.92567 | 18967 ft | 327 kts | 305° |
| 2026-04-21 02:00 | 10.05781 | -60.94386 | 18460 ft | 326 kts | 305° |
| 2026-04-21 02:00 | 10.07152 | -60.96182 | 17932 ft | 317 kts | 305° |
| 2026-04-21 02:00 | 10.08474 | -60.97921 | 17515 ft | 305 kts | 305° |
| 2026-04-21 02:01 | 10.09747 | -60.99594 | 17118 ft | 294 kts | 305° |
| 2026-04-21 02:01 | 10.10984 | -61.01222 | 16639 ft | 288 kts | 305° |
| 2026-04-21 02:01 | 10.12195 | -61.02817 | 16141 ft | 282 kts | 305° |
| 2026-04-21 02:01 | 10.13387 | -61.04387 | 15662 ft | 281 kts | 305° |
| 2026-04-21 02:02 | 10.14568 | -61.05945 | 15178 ft | 284 kts | 304° |
| 2026-04-21 02:02 | 10.15777 | -61.07546 | 14691 ft | 287 kts | 304° |
| 2026-04-21 02:02 | 10.16988 | -61.09154 | 14288 ft | 286 kts | 304° |
| 2026-04-21 02:02 | 10.18196 | -61.10756 | 13909 ft | 285 kts | 304° |
| 2026-04-21 02:03 | 10.19406 | -61.12358 | 13530 ft | 284 kts | 305° |
| 2026-04-21 02:03 | 10.20598 | -61.13932 | 13156 ft | 283 kts | 305° |
| 2026-04-21 02:03 | 10.21794 | -61.15510 | 12779 ft | 282 kts | 305° |
| 2026-04-21 02:03 | 10.22987 | -61.17087 | 12402 ft | 281 kts | 305° |
| 2026-04-21 02:04 | 10.24175 | -61.18657 | 12024 ft | 279 kts | 305° |
| 2026-04-21 02:04 | 10.25354 | -61.20220 | 11628 ft | 276 kts | 304° |
| 2026-04-21 02:04 | 10.26504 | -61.21744 | 11228 ft | 267 kts | 304° |
| 2026-04-21 02:04 | 10.27625 | -61.23229 | 10788 ft | 261 kts | 304° |
| 2026-04-21 02:05 | 10.28722 | -61.24679 | 10339 ft | 257 kts | 304° |
| 2026-04-21 02:05 | 10.29789 | -61.26090 | 9892 ft | 252 kts | 304° |
| 2026-04-21 02:05 | 10.30851 | -61.27496 | 9440 ft | 249 kts | 304° |
| 2026-04-21 02:05 | 10.31898 | -61.28882 | 9019 ft | 245 kts | 304° |
| 2026-04-21 02:06 | 10.32926 | -61.30244 | 8726 ft | 242 kts | 304° |
| 2026-04-21 02:06 | 10.33948 | -61.31601 | 8429 ft | 241 kts | 304° |
| 2026-04-21 02:06 | 10.34963 | -61.32952 | 8156 ft | 240 kts | 304° |
| 2026-04-21 02:06 | 10.35958 | -61.34279 | 7905 ft | 237 kts | 304° |
| 2026-04-21 02:07 | 10.36953 | -61.35606 | 7653 ft | 235 kts | 304° |
| 2026-04-21 02:07 | 10.37939 | -61.36924 | 7401 ft | 233 kts | 304° |
| 2026-04-21 02:07 | 10.38916 | -61.38231 | 7149 ft | 231 kts | 304° |
| 2026-04-21 02:07 | 10.39882 | -61.39526 | 6898 ft | 229 kts | 304° |
| 2026-04-21 02:08 | 10.40840 | -61.40812 | 6646 ft | 227 kts | 304° |
| 2026-04-21 02:08 | 10.41790 | -61.42091 | 6394 ft | 226 kts | 304° |
| 2026-04-21 02:08 | 10.42731 | -61.43360 | 6156 ft | 223 kts | 305° |
| 2026-04-21 02:08 | 10.43657 | -61.44614 | 5961 ft | 219 kts | 305° |
| 2026-04-21 02:09 | 10.44555 | -61.45829 | 5765 ft | 216 kts | 306° |
| 2026-04-21 02:09 | 10.45459 | -61.47051 | 5564 ft | 215 kts | 306° |
| 2026-04-21 02:09 | 10.46359 | -61.48266 | 5362 ft | 215 kts | 307° |
| 2026-04-21 02:09 | 10.47263 | -61.49473 | 5161 ft | 215 kts | 307° |
| 2026-04-21 02:10 | 10.48174 | -61.50668 | 4959 ft | 212 kts | 308° |
| 2026-04-21 02:10 | 10.49210 | -61.51718 | 4752 ft | 209 kts | 325° |
| 2026-04-21 02:10 | 10.50553 | -61.52208 | 4562 ft | 204 kts | 347° |
| 2026-04-21 02:10 | 10.51955 | -61.52322 | 4338 ft | 201 kts | 357° |
| 2026-04-21 02:11 | 10.53329 | -61.52323 | 4093 ft | 199 kts | 0° |
| 2026-04-21 02:11 | 10.54712 | -61.52299 | 3835 ft | 198 kts | 0° |
| 2026-04-21 02:11 | 10.56089 | -61.52273 | 3588 ft | 196 kts | 1° |
| 2026-04-21 02:11 | 10.57442 | -61.52220 | 3280 ft | 193 kts | 5° |
| 2026-04-21 02:12 | 10.58618 | -61.51673 | 3065 ft | 183 kts | 39° |
| 2026-04-21 02:12 | 10.59188 | -61.50593 | 2941 ft | 173 kts | 71° |
| 2026-04-21 02:12 | 10.59368 | -61.49412 | 2778 ft | 165 kts | 83° |
| 2026-04-21 02:12 | 10.59440 | -61.48278 | 2568 ft | 158 kts | 86° |
| 2026-04-21 02:13 | 10.59480 | -61.47165 | 2355 ft | 157 kts | 88° |
| 2026-04-21 02:13 | 10.59497 | -61.46061 | 2147 ft | 156 kts | 89° |
| 2026-04-21 02:13 | 10.59523 | -61.44965 | 1942 ft | 155 kts | 89° |
| 2026-04-21 02:13 | 10.59534 | -61.43870 | 1736 ft | 154 kts | 89° |
| 2026-04-21 02:14 | 10.59538 | -61.42779 | 1531 ft | 154 kts | 90° |
| 2026-04-21 02:14 | 10.59539 | -61.41693 | 1328 ft | 153 kts | 90° |
| 2026-04-21 02:14 | 10.59537 | -61.40613 | 1121 ft | 151 kts | 90° |
| 2026-04-21 02:14 | 10.59537 | -61.39567 | 927 ft | 149 kts | 90° |
| 2026-04-21 02:15 | 10.59538 | -61.38518 | 729 ft | 147 kts | 90° |
| 2026-04-21 02:15 | 10.59537 | -61.37485 | 534 ft | 143 kts | 90° |
| 2026-04-21 02:15 | 10.59538 | -61.36489 | 349 ft | 140 kts | 90° |
| 2026-04-21 02:15 | 10.59537 | -61.35511 | 165 ft | 137 kts | 90° |
| 2026-04-21 02:16 | 10.59538 | -61.34597 | 73 ft | 117 kts | 90° |
| 2026-04-21 02:16 | 10.59535 | -61.33897 | 72 ft | 82 kts | 90° |
| 2026-04-21 02:16 | 10.59535 | -61.33603 | 72 ft | 4 kts | 84° |
| 2026-04-21 02:16 | 10.59538 | -61.33576 | 72 ft | 7 kts | 81° |
| 2026-04-21 02:17 | 10.59575 | -61.33511 | 72 ft | 11 kts | 46° |
| 2026-04-21 02:17 | 10.59636 | -61.33462 | 72 ft | 11 kts | 36° |
| 2026-04-21 02:17 | 10.59694 | -61.33464 | 72 ft | 8 kts | 303° |
| 2026-04-21 02:17 | 10.59706 | -61.33524 | 72 ft | 10 kts | 275° |
| 2026-04-21 02:18 | 10.59706 | -61.33610 | 72 ft | 13 kts | 268° |
| 2026-04-21 02:18 | 10.59710 | -61.33699 | 72 ft | 12 kts | 295° |
| 2026-04-21 02:18 | 10.59779 | -61.33731 | 72 ft | 14 kts | 352° |
| 2026-04-21 02:18 | 10.59870 | -61.33738 | 72 ft | 13 kts | 356° |
| 2026-04-21 02:19 | 10.59918 | -61.33789 | 72 ft | 9 kts | 318° |
| 2026-04-21 02:19 | 10.59956 | -61.33828 | 72 ft | 0 kts | 314° |